createdAt,value
2023-03-02T00:01:56.164Z,33.15
2023-03-02T00:04:45.979Z,33.33
2023-03-02T00:07:20.927Z,35.08
2023-03-02T00:09:48.318Z,34.42
2023-03-02T00:12:16.252Z,37.28
2023-03-02T00:14:43.565Z,36.65
2023-03-02T00:17:11.012Z,37.20
2023-03-02T00:19:39.100Z,37.97
2023-03-02T00:22:06.760Z,41.90
2023-03-02T00:24:34.078Z,46.75
2023-03-02T00:27:01.181Z,42.15
2023-03-02T00:29:28.394Z,43.50
2023-03-02T00:31:55.798Z,49.08
2023-03-02T00:34:22.975Z,48.47
2023-03-02T00:36:50.105Z,47.05
2023-03-02T00:39:20.399Z,49.08
2023-03-02T00:41:48.528Z,54.37
2023-03-02T00:44:17.795Z,54.55
2023-03-02T00:46:45.401Z,55.05
2023-03-02T00:49:13.460Z,54.63
2023-03-02T00:51:40.665Z,55.38
2023-03-02T00:54:07.914Z,58.88
2023-03-02T00:56:35.322Z,54.78
2023-03-02T00:59:27.919Z,55.28
2023-03-02T01:01:58.769Z,59.33
2023-03-02T01:04:41.584Z,64.70
2023-03-02T01:07:13.876Z,62.03
2023-03-02T01:09:43.986Z,61.72
2023-03-02T01:12:11.888Z,64.30
2023-03-02T01:14:42.755Z,70.57
2023-03-02T01:17:11.334Z,69.57
2023-03-02T01:19:39.343Z,73.80
2023-03-02T01:22:07.559Z,74.07
2023-03-02T01:24:34.869Z,72.72
2023-03-02T01:27:02.130Z,70.97
2023-03-02T01:29:29.265Z,79.20
2023-03-02T01:31:56.673Z,82.93
2023-03-02T01:34:23.920Z,80.53
2023-03-02T01:36:50.952Z,85.95
2023-03-02T01:39:18.314Z,94.40
2023-03-02T01:41:46.720Z,96.38
2023-03-02T01:44:38.584Z,91.20
2023-03-02T01:47:31.050Z,97.60
2023-03-02T01:50:04.778Z,107.47
2023-03-02T01:52:35.152Z,106.40
2023-03-02T01:55:07.979Z,100.60
2023-03-02T01:57:43.660Z,94.37
2023-03-02T02:53:21.162Z,62.20
2023-03-02T02:55:52.499Z,60.10
2023-03-02T02:58:27.803Z,61.90
2023-03-02T03:00:55.548Z,63.40
2023-03-02T03:03:45.502Z,68.63
2023-03-02T03:06:23.390Z,66.27
2023-03-02T03:08:56.064Z,64.57
2023-03-02T03:11:30.173Z,73.03
2023-03-02T03:14:11.830Z,72.30
2023-03-02T03:16:44.440Z,70.90
2023-03-02T03:19:29.453Z,75.17
2023-03-02T03:22:00.386Z,84.50
2023-03-02T03:24:30.828Z,87.47
2023-03-02T03:26:59.087Z,85.90
2023-03-02T03:29:29.638Z,82.17
2023-03-02T03:31:58.151Z,83.73
2023-03-02T03:34:26.170Z,91.77
2023-03-02T03:36:54.742Z,94.60
2023-03-02T03:39:22.104Z,87.93
2023-03-02T03:41:49.246Z,81.57
2023-03-02T03:44:16.505Z,87.47
2023-03-02T03:46:43.613Z,86.77
2023-03-02T03:49:10.720Z,91.67
2023-03-02T03:51:38.368Z,85.70
2023-03-02T03:54:08.572Z,89.80
2023-03-02T03:56:42.253Z,81.03
2023-03-02T03:59:13.877Z,84.50
2023-03-02T04:01:49.338Z,80.77
2023-03-02T04:04:24.283Z,81.87
2023-03-02T04:06:53.615Z,78.60
2023-03-02T04:09:22.706Z,83.80
2023-03-02T04:11:53.045Z,87.03
2023-03-02T04:14:22.155Z,82.03
2023-03-02T04:16:50.299Z,87.33
2023-03-02T04:19:17.812Z,80.80
2023-03-02T04:21:48.765Z,81.50
2023-03-02T04:24:18.058Z,76.47
2023-03-02T04:26:46.652Z,80.37
2023-03-02T04:29:14.306Z,76.70
2023-03-02T04:31:42.059Z,76.43
2023-03-02T04:34:10.059Z,77.30
2023-03-02T04:36:39.354Z,81.67
2023-03-02T04:39:08.416Z,79.03
2023-03-02T04:41:36.184Z,83.90
2023-03-02T04:44:03.724Z,56.67
2023-03-02T04:46:31.119Z,67.90
2023-03-02T04:48:58.310Z,72.17
2023-03-02T04:51:32.545Z,72.47
2023-03-02T04:54:03.966Z,72.00
2023-03-02T04:56:31.920Z,72.47
2023-03-02T04:58:59.358Z,78.53
2023-03-02T05:01:27.600Z,75.87
2023-03-02T05:03:54.988Z,71.37
2023-03-02T05:06:24.771Z,80.10
2023-03-02T05:08:53.217Z,74.93
2023-03-02T05:11:23.841Z,74.50
2023-03-02T05:13:57.051Z,73.90
2023-03-02T05:16:26.861Z,68.03
2023-03-02T05:18:53.930Z,78.23
2023-03-02T05:21:21.474Z,78.83
2023-03-02T05:23:50.017Z,82.10
2023-03-02T05:26:17.575Z,84.63
2023-03-02T05:28:45.276Z,79.20
2023-03-02T05:31:27.443Z,74.63
2023-03-02T05:33:54.526Z,72.53
2023-03-02T05:36:23.298Z,75.97
2023-03-02T05:38:50.571Z,77.17
2023-03-02T05:41:18.049Z,80.83
2023-03-02T05:46:21.605Z,86.30
2023-03-02T05:48:49.629Z,85.97
2023-03-02T05:51:16.831Z,83.97
2023-03-02T05:53:43.899Z,77.00
2023-03-02T05:56:11.475Z,84.33
2023-03-02T05:58:38.698Z,69.10
2023-03-02T06:01:12.674Z,78.07
2023-03-02T06:03:43.189Z,79.77
2023-03-02T06:06:14.467Z,72.70
2023-03-02T06:08:43.542Z,75.37
2023-03-02T06:11:11.387Z,75.83
2023-03-02T06:13:39.270Z,81.47
2023-03-02T06:16:07.230Z,73.23
2023-03-02T06:18:34.979Z,73.07
2023-03-02T06:21:02.618Z,80.27
2023-03-02T06:23:29.870Z,76.20
2023-03-02T06:25:58.371Z,85.73
2023-03-02T06:28:26.136Z,85.30
2023-03-02T06:30:53.432Z,84.97
2023-03-02T06:33:21.605Z,83.53
2023-03-02T06:35:50.454Z,80.17
2023-03-02T06:38:17.962Z,81.00
2023-03-02T06:40:45.188Z,85.03
2023-03-02T06:43:12.437Z,78.10
2023-03-02T06:45:39.843Z,69.27
2023-03-02T06:48:07.968Z,77.07
2023-03-02T06:50:35.775Z,81.00
2023-03-02T06:53:03.001Z,77.60
2023-03-02T06:55:30.429Z,79.47
2023-03-02T06:57:57.629Z,74.23
2023-03-02T07:00:27.971Z,73.70
2023-03-02T07:02:56.803Z,85.60
2023-03-02T07:05:25.164Z,80.97
2023-03-02T07:07:53.060Z,94.63
2023-03-02T07:10:23.180Z,90.07
2023-03-02T07:12:50.334Z,80.30
2023-03-02T07:15:17.784Z,84.00
2023-03-02T07:17:46.295Z,81.90
2023-03-02T07:20:18.059Z,85.30
2023-03-02T07:22:45.552Z,81.57
2023-03-02T07:25:13.552Z,77.63
2023-03-02T07:27:41.339Z,84.80
2023-03-02T07:30:09.477Z,81.10
2023-03-02T07:32:39.468Z,77.07
2023-03-02T07:35:07.377Z,81.27
2023-03-02T07:37:34.385Z,77.83
2023-03-02T07:40:02.003Z,74.50
2023-03-02T07:42:29.072Z,76.03
2023-03-02T07:44:56.364Z,62.50
2023-03-02T07:47:23.656Z,72.33
2023-03-02T07:49:51.173Z,82.23
2023-03-02T07:59:41.048Z,78.82
2023-03-02T08:02:15.041Z,71.07
2023-03-02T08:04:42.578Z,68.97
2023-03-02T08:07:09.999Z,64.67
2023-03-02T08:09:39.764Z,64.30
2023-03-02T08:12:07.506Z,65.10
2023-03-02T08:14:34.594Z,64.13
2023-03-02T08:17:02.652Z,61.33
2023-03-02T08:19:29.600Z,50.97
2023-03-02T08:21:57.222Z,49.42
2023-03-02T08:24:24.476Z,48.83
2023-03-02T08:26:51.516Z,46.57
2023-03-02T08:29:18.972Z,47.03
2023-03-02T08:31:46.098Z,45.87
2023-03-02T08:34:13.133Z,50.77
2023-03-02T08:36:41.129Z,46.63
2023-03-02T08:39:08.140Z,50.00
2023-03-02T08:41:35.735Z,40.53
2023-03-02T08:44:02.983Z,43.93
2023-03-02T08:46:30.800Z,42.07
2023-03-02T08:48:57.794Z,40.07
2023-03-02T08:51:26.543Z,42.13
2023-03-02T08:53:56.315Z,46.57
2023-03-02T08:56:33.654Z,39.73
2023-03-02T08:59:06.043Z,38.77
2023-03-02T09:01:36.088Z,37.13
2023-03-02T09:04:06.144Z,38.63
2023-03-02T09:06:40.808Z,41.60
2023-03-02T09:09:09.389Z,38.50
2023-03-02T09:11:36.621Z,39.50
2023-03-02T09:14:04.086Z,35.23
2023-03-02T09:16:31.987Z,36.90
2023-03-02T09:18:59.349Z,36.33
2023-03-02T09:21:26.663Z,34.37
2023-03-02T09:23:58.258Z,35.70
2023-03-02T09:26:26.851Z,35.63
2023-03-02T09:28:54.554Z,34.33
2023-03-02T09:31:22.053Z,34.27
2023-03-02T09:33:49.456Z,31.63
2023-03-02T09:36:22.864Z,31.17
2023-03-02T09:38:50.326Z,30.67
2023-03-02T09:41:20.251Z,31.30
2023-03-02T09:44:16.640Z,30.38
2023-03-02T09:46:50.415Z,28.70
2023-03-02T09:49:26.112Z,29.40
2023-03-02T09:52:11.807Z,27.67
2023-03-02T09:54:40.817Z,26.95
2023-03-02T09:57:33.008Z,34.30
2023-03-02T10:00:19.642Z,37.43
2023-03-02T10:03:02.477Z,34.67
2023-03-02T10:05:41.326Z,32.67
2023-03-02T10:08:31.279Z,31.27
2023-03-02T10:11:36.128Z,29.13
2023-03-02T10:14:08.454Z,32.17
2023-03-02T10:16:48.536Z,31.35
2023-03-02T10:19:25.216Z,31.73
2023-03-02T10:22:09.609Z,32.60
2023-03-02T10:24:57.321Z,29.47
2023-03-02T10:27:38.797Z,28.17
2023-03-02T10:30:28.078Z,31.97
2023-03-02T10:33:02.589Z,30.57
2023-03-02T10:35:32.053Z,30.97
2023-03-02T10:38:12.475Z,31.17
2023-03-02T10:40:47.924Z,28.70
2023-03-02T10:43:40.524Z,28.47
2023-03-02T10:46:11.040Z,30.00
2023-03-02T10:49:28.528Z,29.40
2023-03-02T10:52:17.440Z,27.67
2023-03-02T10:54:44.676Z,28.50
2023-03-02T10:57:38.635Z,28.97
2023-03-02T11:00:22.179Z,33.30
2023-03-02T11:02:56.077Z,29.90
2023-03-02T11:05:32.351Z,29.50
2023-03-02T11:08:28.537Z,28.43
2023-03-02T11:11:03.240Z,27.47
2023-03-02T11:13:39.340Z,25.00
2023-03-02T11:16:18.805Z,26.83
2023-03-02T11:18:58.881Z,28.93
2023-03-02T11:21:37.631Z,26.40
2023-03-02T11:24:39.698Z,25.43
2023-03-02T11:27:10.545Z,25.43
2023-03-02T11:30:03.898Z,23.60
2023-03-02T11:32:51.767Z,25.30
2023-03-02T11:35:58.324Z,23.67
2023-03-02T11:38:29.161Z,23.67
2023-03-02T11:41:10.495Z,24.80
2023-03-02T11:46:25.896Z,23.92
2023-03-02T11:48:58.127Z,24.45
2023-03-02T11:51:39.108Z,25.73
2023-03-02T11:54:51.560Z,23.85
2023-03-02T11:57:33.803Z,24.02
2023-03-02T12:00:02.378Z,23.77
2023-03-02T12:02:29.703Z,24.83
2023-03-02T12:05:08.177Z,24.05
2023-03-02T12:07:36.038Z,25.00
2023-03-02T12:10:07.563Z,24.00
2023-03-02T12:12:44.184Z,24.38
2023-03-02T12:15:39.987Z,23.77
2023-03-02T12:18:52.699Z,23.20
2023-03-02T12:21:25.014Z,23.20
2023-03-02T12:23:51.961Z,23.90
2023-03-02T12:26:22.095Z,22.70
2023-03-02T12:29:10.422Z,23.67
2023-03-02T12:31:48.985Z,23.13
2023-03-02T12:34:45.279Z,22.08
2023-03-02T12:37:19.217Z,22.10
2023-03-02T12:40:24.605Z,21.08
2023-03-02T12:43:19.319Z,20.13
2023-03-02T12:46:19.853Z,20.00
2023-03-02T12:48:57.234Z,19.83
2023-03-02T12:51:29.985Z,19.52
2023-03-02T12:54:08.016Z,20.52
2023-03-02T12:56:35.913Z,19.60
2023-03-02T12:59:03.519Z,19.58
2023-03-02T13:01:32.951Z,20.08
2023-03-02T13:04:00.444Z,19.58
2023-03-02T13:06:31.734Z,19.63
2023-03-02T13:09:00.543Z,19.37
2023-03-02T13:11:36.476Z,19.40
2023-03-02T13:14:26.511Z,19.67
2023-03-02T13:17:05.565Z,18.85
2023-03-02T13:19:33.919Z,18.40
2023-03-02T13:22:01.163Z,18.85
2023-03-02T13:24:49.792Z,18.33
2023-03-02T13:27:23.641Z,18.67
2023-03-02T13:29:57.936Z,18.65
2023-03-02T13:32:41.352Z,18.70
2023-03-02T13:35:32.270Z,17.45
2023-03-02T13:38:14.539Z,17.58
2023-03-02T13:40:48.308Z,17.60
2023-03-02T13:43:37.032Z,16.83
2023-03-02T13:46:35.722Z,16.52
2023-03-02T13:49:11.431Z,17.00
2023-03-02T13:51:45.841Z,17.20
2023-03-02T13:54:32.654Z,16.13
2023-03-02T13:57:02.967Z,15.93
2023-03-02T13:59:32.533Z,15.18
2023-03-02T14:01:59.723Z,15.00
2023-03-02T14:04:27.027Z,14.85
2023-03-02T14:06:55.505Z,14.68
2023-03-02T14:09:22.698Z,14.77
2023-03-02T14:11:54.099Z,15.10
2023-03-02T14:14:25.250Z,15.38
2023-03-02T14:16:52.638Z,14.90
2023-03-02T14:19:20.232Z,14.90
2023-03-02T14:21:48.156Z,14.98
2023-03-02T14:24:15.729Z,14.73
2023-03-02T14:26:46.625Z,14.57
2023-03-02T14:29:27.628Z,14.63
2023-03-02T14:31:57.569Z,15.02
2023-03-02T14:34:24.624Z,14.45
2023-03-02T14:36:56.665Z,15.63
2023-03-02T14:39:38.529Z,14.55
2023-03-02T14:42:13.667Z,14.60
2023-03-02T14:44:44.159Z,16.13
2023-03-02T14:47:12.036Z,17.65
2023-03-02T14:49:40.156Z,17.92
2023-03-02T14:52:23.520Z,17.27
2023-03-02T14:55:02.132Z,19.23
2023-03-02T14:57:30.611Z,17.90
2023-03-02T15:00:00.040Z,18.15
2023-03-02T15:02:28.060Z,19.48
2023-03-02T15:04:57.306Z,18.25
2023-03-02T15:07:27.363Z,17.17
2023-03-02T15:09:56.674Z,16.77
2023-03-02T15:12:24.476Z,18.27
2023-03-02T15:14:51.571Z,19.25
2023-03-02T15:17:19.855Z,19.85
2023-03-02T15:19:47.809Z,20.92
2023-03-02T15:22:15.057Z,21.02
2023-03-02T15:24:42.140Z,20.58
2023-03-02T15:27:09.543Z,20.45
2023-03-02T16:39:08.940Z,34.33
2023-03-02T16:41:37.355Z,36.22
2023-03-02T16:44:05.275Z,38.17
2023-03-02T16:46:39.388Z,37.95
2023-03-02T16:49:07.120Z,37.88
2023-03-02T16:51:34.510Z,39.35
2023-03-02T16:54:02.416Z,38.63
2023-03-02T16:56:29.853Z,41.17
2023-03-02T16:58:59.984Z,43.97
2023-03-02T17:01:28.303Z,41.20
2023-03-02T17:03:56.670Z,41.33
2023-03-02T17:06:24.645Z,42.47
2023-03-02T17:08:51.915Z,44.65
2023-03-02T17:11:19.939Z,44.65
2023-03-02T17:13:47.628Z,44.28
2023-03-02T17:16:16.444Z,44.58
2023-03-02T17:18:47.122Z,45.85
2023-03-02T17:21:16.496Z,42.70
2023-03-02T17:23:44.132Z,45.60
2023-03-02T17:26:11.223Z,45.47
2023-03-02T17:28:39.285Z,46.78
2023-03-02T17:31:07.105Z,46.28
2023-03-02T17:33:34.859Z,47.77
2023-03-02T17:36:07.633Z,50.03
2023-03-02T17:38:34.722Z,49.92
2023-03-02T17:41:04.459Z,50.67
2023-03-02T17:46:23.296Z,49.88
2023-03-02T17:48:56.871Z,51.90
2023-03-02T17:51:26.438Z,52.38
2023-03-02T17:53:54.672Z,55.78
2023-03-02T17:56:25.608Z,58.63
2023-03-02T17:58:59.320Z,55.90
2023-03-02T18:01:28.466Z,56.83
2023-03-02T18:03:56.440Z,58.63
2023-03-02T18:06:24.246Z,59.33
2023-03-02T18:08:52.137Z,59.80
2023-03-02T18:11:22.639Z,59.72
2023-03-02T18:13:49.912Z,61.78
2023-03-02T18:16:17.355Z,60.85
2023-03-02T18:18:44.570Z,60.28
2023-03-02T18:21:11.559Z,68.07
2023-03-02T18:23:40.105Z,63.67
2023-03-02T18:26:07.186Z,55.83
2023-03-02T18:28:34.333Z,57.28
2023-03-02T18:31:01.450Z,57.28
2023-03-02T18:33:28.810Z,60.47
2023-03-02T18:35:55.987Z,57.63
2023-03-02T18:38:30.714Z,56.72
2023-03-02T18:41:03.151Z,57.05
2023-03-02T18:43:34.791Z,60.03
2023-03-02T18:46:04.413Z,66.28
2023-03-02T18:48:32.796Z,65.68
2023-03-02T18:51:00.776Z,66.18
2023-03-02T18:53:28.121Z,77.30
2023-03-02T18:55:56.192Z,79.00
2023-03-02T18:58:25.010Z,82.03
2023-03-02T19:00:54.385Z,85.23
2023-03-02T19:03:22.436Z,77.50
2023-03-02T19:05:49.783Z,78.57
2023-03-02T19:08:16.881Z,80.70
2023-03-02T19:10:44.029Z,77.20
2023-03-02T19:13:12.100Z,87.55
2023-03-02T19:15:40.620Z,81.50
2023-03-02T19:18:18.518Z,78.53
2023-03-02T19:20:47.672Z,71.73
2023-03-02T19:23:15.812Z,79.63
2023-03-02T19:25:43.497Z,76.85
2023-03-02T19:28:11.406Z,78.82
2023-03-02T19:30:40.358Z,80.88
2023-03-02T19:33:09.300Z,83.72
2023-03-02T19:35:38.021Z,80.37
2023-03-02T19:38:06.925Z,73.87
2023-03-02T19:40:35.743Z,76.97
2023-03-02T19:43:03.052Z,76.40
2023-03-02T19:45:33.024Z,84.17
2023-03-02T19:48:02.559Z,83.05
2023-03-02T19:50:30.386Z,84.47
2023-03-02T19:52:58.114Z,81.27
2023-03-02T19:55:26.737Z,88.30
2023-03-02T19:58:00.122Z,87.70
2023-03-02T20:00:30.807Z,92.35
2023-03-02T20:02:58.511Z,96.07
2023-03-02T20:05:27.709Z,94.23
2023-03-02T20:07:55.450Z,90.83
2023-03-02T20:10:46.718Z,91.40
2023-03-02T20:13:14.061Z,86.27
2023-03-02T20:15:44.634Z,83.43
2023-03-02T20:18:17.036Z,76.53
2023-03-02T20:20:45.836Z,80.13
2023-03-02T20:23:14.779Z,77.72
2023-03-02T20:25:42.032Z,79.20
2023-03-02T20:28:13.927Z,84.05
2023-03-02T20:30:52.649Z,81.07
2023-03-02T20:33:24.588Z,82.03
2023-03-02T20:35:52.904Z,86.20
2023-03-02T20:38:50.352Z,86.65
2023-03-02T20:41:18.729Z,86.53
2023-03-02T20:43:48.969Z,82.53
2023-03-02T20:46:28.634Z,74.37
2023-03-02T20:48:56.972Z,69.43
2023-03-02T20:51:24.470Z,78.05
2023-03-02T20:53:53.327Z,79.85
2023-03-02T20:56:22.078Z,89.90
